Latest Coastal Weather Observations for Mackay Racecourse

IDQ60701

Issued at 4:32 pm EST Wednesday 8 February 2023 (issued every 10 minutes, with the page automatically refreshed every 10 minutes)

About coastal observations | Map of coastal stations | Coastal observations for QLD | Marine services | Other Formats
Station Details ID: 033329 Name: OORALEA RACECOURSE (MACKAY TURF CLUB) Lat: -21.17 Lon: 149.15 Height: 10.31 m
Data from the previous 72 hours. | See also: Recent months at Mackay Racecourse
Date/Time
EST
Wind Sea
Height
m
Swell Vis
km
Cloud Weather Temp
°C
Press
MSL
hPa
Rain since
9am
mm
Dir  Spd
kts
Gust
kts
Height
m
Period
s
Dir
08/04:30pm S 8 13 - - - - - - - 24.9 - 1.2
08/04:00pm SSE 9 16 - - - - - - - 25.5 - 0.2
08/03:30pm SE 16 25 - - - - - - - 25.4 - 0.2
08/03:00pm SE 15 27 - - - - - - - 27.6 - 0.0
08/02:55pm SE 15 27 - - - - - - - 27.8 - 0.0
08/02:30pm SE 13 20 - - - - - - - 28.1 - 0.0
08/02:00pm SE 13 20 - - - - - - - 28.0 - 0.0
08/01:30pm SE 13 23 - - - - - - - 28.1 - 0.0
08/01:00pm SE 12 19 - - - - - - - 28.1 - 0.0
08/12:30pm SE 13 22 - - - - - - - 28.6 - 0.0
08/12:00pm SE 13 17 - - - - - - - 28.5 - 0.0
08/11:30am SSE 12 21 - - - - - - - 29.0 - 0.0
08/11:00am SE 12 22 - - - - - - - 28.5 - 0.0
08/10:30am SSE 11 19 - - - - - - - 28.2 - 0.0
08/10:00am SSE 11 19 - - - - - - - 27.6 - 0.0
08/09:30am SSE 10 17 - - - - - - - 27.4 - 0.0
08/09:00am SSE 11 18 - - - - - - - 26.9 - 1.2
08/08:30am SSE 11 16 - - - - - - - 26.4 - 1.2
08/08:00am S 9 16 - - - - - - - 26.2 - 1.2
08/07:30am SSE 9 14 - - - - - - - 25.9 - 1.2
08/07:00am SSE 9 15 - - - - - - - 25.1 - 1.2
08/06:30am S 8 13 - - - - - - - 24.8 - 1.2
08/06:00am S 8 13 - - - - - - - 24.9 - 1.2
08/05:30am S 6 10 - - - - - - - 25.0 - 1.2
08/05:00am S 6 10 - - - - - - - 24.9 - 1.2
08/04:30am S 6 9 - - - - - - - 24.9 - 1.2
08/04:00am S 6 9 - - - - - - - 25.1 - 1.2
08/03:30am S 7 13 - - - - - - - 25.6 - 1.2
08/03:00am SE 12 20 - - - - - - - 27.2 - 1.2
08/02:30am SE 11 17 - - - - - - - 27.3 - 1.2
08/02:00am SE 12 22 - - - - - - - 27.2 - 1.2
08/01:30am SE 13 20 - - - - - - - 27.3 - 1.2
08/01:00am SE 11 19 - - - - - - - 27.2 - 1.2
08/12:30am SE 14 21 - - - - - - - 27.3 - 1.2
08/12:00am SE 12 19 - - - - - - - 27.3 - 1.2
 
Date/Time
EST
Wind Sea
Height
m
Swell Vis
km
Cloud Weather Temp
°C
Press
MSL
hPa
Rain since
9am
mm
Dir  Spd
kts
Gust
kts
Height
m
Period
s
Dir
07/11:30pm SE 12 20 - - - - - - - 27.4 - 1.2
07/11:00pm SE 15 23 - - - - - - - 27.4 - 1.2
07/10:30pm SE 11 17 - - - - - - - 27.3 - 1.2
07/10:00pm SE 12 18 - - - - - - - 27.4 - 1.2
07/09:30pm SE 10 16 - - - - - - - 27.4 - 1.2
07/09:00pm SE 10 15 - - - - - - - 27.2 - 1.2
07/08:30pm SE 11 17 - - - - - - - 27.3 - 1.2
07/08:00pm SE 11 16 - - - - - - - 27.5 - 1.2
07/07:30pm SE 11 20 - - - - - - - 27.4 - 1.2
07/07:00pm SE 10 16 - - - - - - - 27.1 - 1.2
07/06:30pm SE 10 18 - - - - - - - 26.3 - 1.2
07/06:15pm SE 15 25 - - - - - - - 27.1 - 1.2
07/06:00pm SE 9 14 - - - - - - Recent precip. 26.8 - 1.2
07/05:30pm SE 11 17 - - - - - - - 27.1 - 1.2
07/05:14pm SE 15 25 - - - - - - - 26.1 - 1.2
07/05:00pm SE 12 19 - - - - - - - 28.7 - 0.2
07/04:30pm SE 12 21 - - - - - - - 29.2 - 0.2
07/04:00pm SE 12 20 - - - - - - - 26.8 - 0.2
07/03:45pm SE 14 26 - - - - - - - 27.9 - 0.2
07/03:44pm SE 14 26 - - - - - - - 28.4 - 0.2
07/03:30pm SSE 8 12 - - - - - - - 28.8 - 0.2
07/03:00pm SE 11 17 - - - - - - - 28.0 - 0.2
07/02:30pm SE 13 19 - - - - - - - 27.6 - 0.2
07/02:00pm SE 10 16 - - - - - - - 28.3 - 0.2
07/01:30pm SE 15 21 - - - - - - - 29.4 - 0.2
07/01:00pm SE 12 19 - - - - - - - 29.7 - 0.2
07/12:30pm SE 14 22 - - - - - - - 29.3 - 0.2
07/12:00pm SE 13 20 - - - - - - - 30.3 - 0.2
07/11:30am SE 13 20 - - - - - - - 29.8 - 0.2
07/11:00am SE 14 20 - - - - - - - 29.5 - 0.2
07/10:30am SE 12 19 - - - - - - - 28.8 - 0.2
07/10:00am SSE 10 17 - - - - - - - 27.9 - 0.0
07/09:30am SE 11 18 - - - - - - - 29.0 - 0.0
07/09:00am SSE 7 13 - - - - - - - 28.7 - 16.2
07/08:30am SSE 8 13 - - - - - - - 27.3 - 16.2
07/08:00am S 6 9 - - - - - - - 26.9 - 16.2
07/07:30am SSE 5 9 - - - - - - - 26.3 - 16.2
07/07:00am SSE 8 13 - - - - - - - 25.4 - 16.2
07/06:30am SSE 3 5 - - - - - - - 26.0 - 13.6
07/06:00am S 4 6 - - - - - - Rain 25.6 - 13.6
07/05:30am S 3 5 - - - - - - - 25.4 - 13.4
07/05:00am SSE 5 9 - - - - - - - 25.7 - 13.4
07/04:30am SE 2 6 - - - - - - - 25.3 - 11.4
07/04:00am ESE 7 14 - - - - - - - 24.4 - 11.4
07/03:30am SSE 1 5 - - - - - - - 25.9 - 5.0
07/03:00am SSE 3 5 - - - - - - Recent precip. 26.0 - 5.0
07/02:30am ENE 6 11 - - - - - - - 25.9 - 5.0
07/02:00am SSE 7 10 - - - - - - - 26.2 - 4.6
07/01:30am SE 7 11 - - - - - - - 26.4 - 4.6
07/01:00am ESE 11 19 - - - - - - - 26.1 - 4.2
07/12:30am E 10 17 - - - - - - - 26.7 - 3.4
07/12:00am ESE 12 23 - - - - - - Rain 25.6 - 3.4
 
Date/Time
EST
Wind Sea
Height
m
Swell Vis
km
Cloud Weather Temp
°C
Press
MSL
hPa
Rain since
9am
mm
Dir  Spd
kts
Gust
kts
Height
m
Period
s
Dir
06/11:30pm SE 10 18 - - - - - - - 27.7 - 1.6
06/11:00pm SSE 4 7 - - - - - - - 26.7 - 1.6
06/10:30pm SE 5 8 - - - - - - - 26.9 - 1.6
06/10:00pm SE 6 10 - - - - - - - 26.4 - 1.6
06/09:30pm ESE 12 20 - - - - - - - 26.1 - 1.4
06/09:00pm SE 9 15 - - - - - - - 28.3 - 1.0
06/08:30pm ESE 8 13 - - - - - - - 28.3 - 1.0
06/08:00pm SE 8 13 - - - - - - - 28.3 - 1.0
06/07:30pm ESE 8 11 - - - - - - - 28.5 - 1.0
06/07:00pm ESE 8 13 - - - - - - - 28.6 - 1.0
06/06:30pm ESE 9 13 - - - - - - - 28.3 - 1.0
06/06:00pm ESE 9 13 - - - - - - - 29.0 - 1.0
06/05:30pm ESE 9 13 - - - - - - - 29.5 - 1.0
06/05:00pm ESE 11 15 - - - - - - - 29.6 - 1.0
06/04:30pm ESE 9 14 - - - - - - - 29.7 - 1.0
06/04:00pm ESE 10 14 - - - - - - - 29.9 - 1.0
06/03:30pm ESE 13 20 - - - - - - - 30.4 - 1.0
06/03:00pm ESE 14 18 - - - - - - - 30.6 - 1.0
06/02:30pm ESE 13 19 - - - - - - - 31.0 - 1.0
06/02:00pm ESE 12 18 - - - - - - - 30.0 - 1.0
06/01:30pm SE 12 19 - - - - - - - 29.9 - 1.0
06/01:00pm ESE 11 17 - - - - - - - 31.2 - 1.0
06/12:30pm ESE 12 19 - - - - - - - 29.9 - 1.0
06/12:00pm ESE 12 18 - - - - - - - 30.8 - 1.0
06/11:30am ESE 11 17 - - - - - - - 30.7 - 1.0
06/11:00am ESE 11 18 - - - - - - - 30.8 - 1.0
06/10:30am ESE 12 18 - - - - - - - 30.0 - 1.0
06/10:00am ESE 11 18 - - - - - - - 29.1 - 1.0
06/09:30am ESE 9 15 - - - - - - - 29.9 - 0.0
06/09:00am ESE 10 15 - - - - - - - 29.6 - 1.0
06/08:30am SE 6 10 - - - - - - - 28.9 - 1.0
06/08:00am SSE 4 8 - - - - - - - 27.9 - 1.0
06/07:30am SE 8 13 - - - - - - - 28.9 - 1.0
06/07:00am SE 4 7 - - - - - - - 27.6 - 1.0
06/06:30am SSE 4 6 - - - - - - - 26.9 - 1.0
06/06:00am SSE 2 3 - - - - - - - 26.4 - 1.0
06/05:30am S 2 3 - - - - - - - 26.4 - 1.0
06/05:00am S 2 4 - - - - - - - 26.7 - 1.0
06/04:30am ESE 6 10 - - - - - - - 27.9 - 1.0
06/04:00am ESE 5 11 - - - - - - - 27.9 - 1.0
06/03:30am ESE 6 9 - - - - - - - 27.7 - 1.0
06/03:00am ESE 6 10 - - - - - - - 27.6 - 1.0
06/02:30am ESE 5 9 - - - - - - - 28.1 - 1.0
06/02:00am ESE 6 10 - - - - - - - 28.2 - 1.0
06/01:30am ESE 6 10 - - - - - - - 28.1 - 1.0
06/01:00am ESE 5 8 - - - - - - - 27.9 - 1.0
06/12:30am ESE 6 10 - - - - - - - 28.0 - 1.0
06/12:00am ESE 6 9 - - - - - - - 28.3 - 1.0
 
Date/Time
EST
Wind Sea
Height
m
Swell Vis
km
Cloud Weather Temp
°C
Press
MSL
hPa
Rain since
9am
mm
Dir  Spd
kts
Gust
kts
Height
m
Period
s
Dir
05/11:30pm ESE 7 9 - - - - - - - 28.4 - 1.0
05/11:00pm ESE 5 7 - - - - - - - 28.4 - 1.0
05/10:30pm E 5 8 - - - - - - - 28.5 - 1.0
05/10:00pm E 7 10 - - - - - - - 28.5 - 1.0
05/09:30pm E 7 11 - - - - - - - 28.3 - 1.0
05/09:00pm ENE 8 15 - - - - - - - 27.7 - 1.0
05/08:30pm ENE 8 14 - - - - - - - 28.7 - 1.0
05/08:00pm E 9 15 - - - - - - - 28.7 - 1.0
05/07:30pm E 9 15 - - - - - - - 28.5 - 1.0
05/07:00pm E 8 13 - - - - - - - 29.1 - 0.0
05/06:30pm E 8 13 - - - - - - - 29.4 - 0.0
05/06:00pm E 7 13 - - - - - - - 29.7 - 0.0
05/05:30pm E 9 15 - - - - - - - 29.8 - 0.0
05/05:00pm E 9 13 - - - - - - - 29.7 - 0.0

Other formats

Comma delimited format used in spreadsheet applications
http://www.bom.gov.au/fwo/IDQ60701/IDQ60701.94352.axf

JavaScript Object Notation format (JSON) in row-major order
http://www.bom.gov.au/fwo/IDQ60701/IDQ60701.94352.json

Data quality

Most of these data are generated automatically and are frequently updated. Quality checks on data are not normally performed. It is possible for incorrect values to appear. Refer to information at About Latest Weather Observations and please check the disclaimer before using these data.